createdAt,value
2019-01-05T00:00:00.620Z,8.97
2019-01-05T00:03:14.168Z,7.53
2019-01-05T00:06:05.077Z,7.30
2019-01-05T00:08:57.600Z,7.30
2019-01-05T00:12:05.840Z,7.57
2019-01-05T00:15:06.508Z,5.93
2019-01-05T00:17:58.794Z,7.50
2019-01-05T00:20:41.892Z,9.70
2019-01-05T00:23:34.025Z,8.50
2019-01-05T00:26:32.708Z,7.50
2019-01-05T00:29:31.838Z,9.03
2019-01-05T00:32:42.217Z,7.40
2019-01-05T00:35:35.842Z,8.47
2019-01-05T00:38:29.378Z,7.43
2019-01-05T00:41:34.547Z,8.37
2019-01-05T00:44:33.644Z,7.37
2019-01-05T00:47:25.844Z,7.60
2019-01-05T00:50:17.052Z,7.27
2019-01-05T00:53:13.024Z,6.67
2019-01-05T00:56:06.280Z,7.17
2019-01-05T00:59:05.157Z,6.40
2019-01-05T01:02:01.399Z,6.07
2019-01-05T01:04:57.723Z,6.20
2019-01-05T01:07:54.468Z,5.57
2019-01-05T01:10:41.527Z,6.87
2019-01-05T01:13:54.460Z,6.47
2019-01-05T01:16:52.056Z,5.80
2019-01-05T01:19:44.185Z,5.73
2019-01-05T01:22:37.588Z,5.73
2019-01-05T01:25:32.460Z,5.20
2019-01-05T01:28:32.364Z,5.27
2019-01-05T01:31:29.099Z,6.80
2019-01-05T01:34:20.336Z,5.50
2019-01-05T01:37:13.458Z,5.20
2019-01-05T01:40:08.568Z,5.20
2019-01-05T01:42:55.160Z,5.60
2019-01-05T01:45:49.260Z,5.23
2019-01-05T01:48:47.168Z,4.90
2019-01-05T01:51:42.812Z,4.63
2019-01-05T01:54:41.145Z,5.77
2019-01-05T01:57:36.042Z,5.30
2019-01-05T02:00:37.612Z,6.80
2019-01-05T02:03:44.022Z,7.67
2019-01-05T02:06:56.038Z,7.97
2019-01-05T02:10:04.375Z,11.07
2019-01-05T02:13:15.618Z,7.50
2019-01-05T02:16:14.956Z,6.00
2019-01-05T02:19:14.253Z,5.77
2019-01-05T02:22:35.872Z,6.37
2019-01-05T02:25:58.655Z,5.40
2019-01-05T02:29:16.122Z,5.40
2019-01-05T02:32:23.703Z,5.93
2019-01-05T02:35:28.352Z,6.53
2019-01-05T02:38:53.259Z,5.93
2019-01-05T02:42:19.803Z,5.70
2019-01-05T02:45:32.341Z,5.20
2019-01-05T02:48:39.220Z,5.33
2019-01-05T02:52:04.634Z,5.83
2019-01-05T02:55:20.396Z,6.10
2019-01-05T02:58:43.030Z,6.00
2019-01-05T03:02:00.768Z,6.37
2019-01-05T03:05:23.536Z,5.30
2019-01-05T03:08:32.146Z,5.17
2019-01-05T03:11:41.592Z,5.13
2019-01-05T03:14:50.258Z,6.73
2019-01-05T03:18:11.634Z,4.93
2019-01-05T03:21:25.970Z,4.93
2019-01-05T03:24:37.673Z,5.30
2019-01-05T03:27:53.351Z,5.37
2019-01-05T03:31:19.580Z,4.90
2019-01-05T03:34:27.000Z,4.73
2019-01-05T03:37:34.789Z,5.07
2019-01-05T03:40:56.514Z,4.97
2019-01-05T03:43:55.620Z,4.77
2019-01-05T03:47:17.547Z,4.70
2019-01-05T03:50:25.167Z,4.50
2019-01-05T03:53:43.118Z,5.37
2019-01-05T03:57:00.306Z,5.60
2019-01-05T04:00:18.150Z,6.33
2019-01-05T04:03:35.776Z,5.97
2019-01-05T04:06:41.314Z,4.70
2019-01-05T04:09:53.602Z,5.73
2019-01-05T04:13:09.852Z,5.23
2019-01-05T04:16:38.323Z,4.97
2019-01-05T04:20:05.546Z,5.00
2019-01-05T04:23:14.187Z,5.23
2019-01-05T04:26:35.284Z,5.30
2019-01-05T04:29:47.194Z,4.80
2019-01-05T04:32:50.088Z,5.63
2019-01-05T04:36:36.679Z,7.23
2019-01-05T04:40:14.359Z,5.00
2019-01-05T04:43:37.534Z,3.87
2019-01-05T04:46:55.670Z,7.20
2019-01-05T04:50:04.610Z,6.53
2019-01-05T04:53:22.852Z,9.13
2019-01-05T04:56:31.571Z,8.60
2019-01-05T04:59:51.301Z,7.77
2019-01-05T05:02:55.407Z,7.93
2019-01-05T05:06:13.410Z,9.27
2019-01-05T05:09:31.139Z,8.97
2019-01-05T05:12:35.983Z,8.47
2019-01-05T05:16:16.758Z,12.23
2019-01-05T05:19:23.554Z,9.23
2019-01-05T05:22:48.011Z,10.17
2019-01-05T05:26:08.967Z,8.63
2019-01-05T05:29:09.658Z,9.10
2019-01-05T05:32:30.971Z,9.40
2019-01-05T05:35:53.834Z,10.10
2019-01-05T05:39:07.920Z,10.50
2019-01-05T05:42:25.196Z,9.53
2019-01-05T05:45:51.150Z,11.20
2019-01-05T05:49:11.830Z,11.10
2019-01-05T05:52:19.389Z,9.37
2019-01-05T05:55:26.543Z,11.70
2019-01-05T05:58:26.692Z,9.80
2019-01-05T06:01:47.992Z,11.87
2019-01-05T06:05:17.048Z,12.00
2019-01-05T06:08:38.389Z,13.57
2019-01-05T06:11:49.685Z,12.80
2019-01-05T06:15:07.488Z,11.73
2019-01-05T06:18:27.598Z,12.40
2019-01-05T06:21:34.436Z,13.70
2019-01-05T06:25:01.019Z,12.00
2019-01-05T06:28:23.963Z,12.43
2019-01-05T06:31:44.975Z,12.17
2019-01-05T06:35:19.351Z,17.00
2019-01-05T06:38:36.011Z,15.80
2019-01-05T06:42:08.262Z,16.40
2019-01-05T06:45:13.011Z,15.93
2019-01-05T06:48:28.454Z,18.20
2019-01-05T06:51:48.194Z,15.40
2019-01-05T06:54:57.177Z,15.57
2019-01-05T06:57:56.329Z,13.97
2019-01-05T07:01:24.764Z,20.13
2019-01-05T07:04:43.507Z,18.30
2019-01-05T07:08:06.940Z,16.53
2019-01-05T07:11:07.151Z,14.07
2019-01-05T07:14:42.064Z,11.33
2019-01-05T07:17:49.330Z,10.63
2019-01-05T07:21:27.458Z,9.47
2019-01-05T07:24:45.622Z,9.87
2019-01-05T07:28:02.482Z,12.00
2019-01-05T07:31:17.285Z,15.73
2019-01-05T07:34:26.252Z,17.60
2019-01-05T07:37:35.339Z,18.97
2019-01-05T07:40:39.562Z,20.10
2019-01-05T07:44:01.253Z,20.30
2019-01-05T07:47:18.895Z,22.27
2019-01-05T07:50:27.664Z,23.33
2019-01-05T07:53:43.561Z,19.40
2019-01-05T07:56:52.552Z,18.37
2019-01-05T08:00:27.443Z,17.87
2019-01-05T08:03:35.058Z,17.50
2019-01-05T08:06:51.483Z,18.10
2019-01-05T08:10:08.418Z,14.67
2019-01-05T08:13:32.486Z,13.40
2019-01-05T08:16:51.036Z,13.53
2019-01-05T08:20:18.716Z,14.47
2019-01-05T08:23:22.100Z,12.40
2019-01-05T08:26:44.049Z,12.50
2019-01-05T08:30:13.024Z,21.03
2019-01-05T08:33:31.484Z,15.37
2019-01-05T08:36:38.705Z,14.83
2019-01-05T08:40:15.126Z,13.53
2019-01-05T08:43:22.422Z,14.43
2019-01-05T08:46:25.884Z,12.97
2019-01-05T08:49:49.900Z,13.03
2019-01-05T08:53:15.582Z,10.43
2019-01-05T08:56:27.438Z,8.60
2019-01-05T08:59:50.180Z,9.57
2019-01-05T09:03:15.397Z,10.33
2019-01-05T09:06:25.189Z,11.17
2019-01-05T09:10:00.576Z,13.40
2019-01-05T09:13:08.007Z,14.80
2019-01-05T09:16:22.834Z,16.27
2019-01-05T09:19:49.438Z,19.70
2019-01-05T09:23:08.368Z,22.70
2019-01-05T09:26:24.020Z,26.63
2019-01-05T09:29:38.134Z,28.77
2019-01-05T09:32:57.141Z,29.03
2019-01-05T09:36:08.748Z,27.10
2019-01-05T09:39:23.620Z,29.20
2019-01-05T09:42:29.111Z,31.60
2019-01-05T09:45:44.130Z,33.03
2019-01-05T09:49:04.381Z,23.50
2019-01-05T09:52:11.922Z,23.03
2019-01-05T09:55:40.734Z,17.67
2019-01-05T09:58:55.484Z,18.60
2019-01-05T10:02:27.616Z,18.43
2019-01-05T10:05:47.282Z,16.00
2019-01-05T10:08:55.691Z,15.47
2019-01-05T10:12:15.418Z,14.83
2019-01-05T10:15:33.320Z,16.83
2019-01-05T10:18:49.960Z,14.77
2019-01-05T10:22:11.097Z,12.50
2019-01-05T10:25:35.518Z,12.03
2019-01-05T10:28:58.349Z,11.40
2019-01-05T10:32:04.594Z,14.57
2019-01-05T10:35:29.460Z,12.83
2019-01-05T10:38:29.146Z,10.83
2019-01-05T10:41:32.498Z,10.87
2019-01-05T10:44:34.335Z,9.50
2019-01-05T10:47:40.470Z,10.23
2019-01-05T10:51:04.283Z,10.00
2019-01-05T10:54:19.969Z,10.57
2019-01-05T10:57:32.866Z,9.23
2019-01-05T11:00:33.300Z,9.47
2019-01-05T11:03:40.602Z,9.17
2019-01-05T11:06:59.138Z,9.07
2019-01-05T11:10:21.950Z,9.70
2019-01-05T11:13:36.960Z,8.87
2019-01-05T11:16:49.481Z,8.63
2019-01-05T11:20:00.173Z,9.13
2019-01-05T11:23:07.853Z,8.70
2019-01-05T11:26:42.163Z,10.40
2019-01-05T11:30:03.583Z,6.53
2019-01-05T11:33:38.169Z,8.03
2019-01-05T11:36:54.014Z,9.00
2019-01-05T11:40:09.993Z,12.40
2019-01-05T11:43:17.425Z,13.80
2019-01-05T11:46:32.516Z,9.70
2019-01-05T11:49:56.376Z,8.80
2019-01-05T11:53:05.656Z,8.47
2019-01-05T11:56:22.097Z,7.97
2019-01-05T11:59:49.720Z,9.57
2019-01-05T12:03:03.201Z,8.00
2019-01-05T12:06:19.522Z,13.23
2019-01-05T12:09:40.681Z,8.20
2019-01-05T12:12:47.544Z,9.60
2019-01-05T12:16:07.504Z,7.80
2019-01-05T12:19:27.366Z,7.50
2019-01-05T12:22:34.970Z,7.37
2019-01-05T12:26:10.476Z,9.67
2019-01-05T12:29:43.211Z,9.27
2019-01-05T12:33:17.020Z,11.35
2019-01-05T12:36:43.138Z,10.30
2019-01-05T12:39:54.723Z,9.23
2019-01-05T12:43:20.260Z,10.93
2019-01-05T12:46:39.829Z,12.80
2019-01-05T12:49:45.848Z,11.97
2019-01-05T12:53:09.840Z,11.40
2019-01-05T12:56:21.060Z,11.73
2019-01-05T12:59:32.600Z,10.13
2019-01-05T13:02:51.588Z,8.07
2019-01-05T13:05:55.262Z,9.03
2019-01-05T13:09:07.776Z,9.53
2019-01-05T13:12:26.337Z,9.60
2019-01-05T13:15:55.265Z,9.07
2019-01-05T13:19:08.792Z,11.90
2019-01-05T13:22:53.325Z,10.23
2019-01-05T13:26:31.808Z,7.47
2019-01-05T13:30:09.680Z,8.30
2019-01-05T13:33:18.350Z,8.70
2019-01-05T13:36:44.486Z,9.57
2019-01-05T13:40:14.913Z,7.70
2019-01-05T13:43:25.067Z,7.60
2019-01-05T13:47:00.900Z,9.33
2019-01-05T13:50:17.775Z,8.00
2019-01-05T13:53:26.382Z,8.53
2019-01-05T13:56:12.200Z,9.70
2019-01-05T13:59:07.798Z,10.37
2019-01-05T14:02:19.171Z,9.90
2019-01-05T14:05:09.962Z,10.47
2019-01-05T14:08:03.304Z,9.57
2019-01-05T14:10:54.028Z,17.30
2019-01-05T14:13:45.482Z,8.33
2019-01-05T14:16:45.314Z,9.10
2019-01-05T14:19:37.805Z,9.73
2019-01-05T14:22:31.950Z,11.27
2019-01-05T14:25:33.082Z,10.03
2019-01-05T14:28:33.968Z,9.13
2019-01-05T14:31:26.071Z,9.77
2019-01-05T14:34:18.914Z,9.37
2019-01-05T14:37:11.695Z,8.63
2019-01-05T14:40:02.813Z,10.23
2019-01-05T14:42:54.711Z,10.17
2019-01-05T14:45:46.962Z,9.90
2019-01-05T14:48:39.072Z,8.93
2019-01-05T14:51:47.911Z,9.33
2019-01-05T14:54:39.493Z,9.17
2019-01-05T14:57:30.602Z,11.73
2019-01-05T15:00:29.938Z,11.17
2019-01-05T15:03:21.772Z,9.70
2019-01-05T15:06:34.717Z,11.10
2019-01-05T15:09:44.697Z,12.07
2019-01-05T15:12:36.870Z,12.47
2019-01-05T15:15:39.146Z,11.70
2019-01-05T15:18:32.101Z,12.17
2019-01-05T15:21:38.973Z,15.47
2019-01-05T15:24:40.788Z,15.40
2019-01-05T15:27:42.673Z,12.70
2019-01-05T15:30:33.816Z,16.03
2019-01-05T15:33:39.556Z,14.10
2019-01-05T15:36:35.816Z,14.47
2019-01-05T15:39:38.460Z,14.37
2019-01-05T15:42:33.630Z,13.90
2019-01-05T15:45:32.944Z,13.57
2019-01-05T15:48:29.738Z,16.80
2019-01-05T15:51:19.621Z,14.13
2019-01-05T15:54:10.836Z,16.00
2019-01-05T15:57:03.044Z,13.73
2019-01-05T16:00:11.566Z,14.73
2019-01-05T16:03:11.223Z,15.53
2019-01-05T16:06:14.066Z,15.60
2019-01-05T16:09:05.526Z,17.20
2019-01-05T16:12:12.270Z,19.90
2019-01-05T16:15:08.159Z,19.87
2019-01-05T16:18:01.241Z,19.07
2019-01-05T16:20:57.113Z,19.03
2019-01-05T16:23:49.319Z,22.00
2019-01-05T16:26:40.910Z,20.83
2019-01-05T16:29:45.406Z,24.03
2019-01-05T16:32:37.127Z,21.13
2019-01-05T16:35:36.739Z,21.93
2019-01-05T16:38:27.675Z,22.93
2019-01-05T16:41:20.095Z,22.70
2019-01-05T16:44:13.157Z,20.07
2019-01-05T16:47:22.003Z,23.90
2019-01-05T16:50:15.427Z,23.53
2019-01-05T16:53:12.547Z,23.77
2019-01-05T16:56:03.924Z,24.37
2019-01-05T16:58:56.884Z,23.73
2019-01-05T17:01:47.588Z,23.17
2019-01-05T17:04:53.848Z,24.73
2019-01-05T17:07:45.271Z,28.20
2019-01-05T17:10:37.496Z,34.40
2019-01-05T17:13:28.897Z,36.67
2019-01-05T17:16:25.659Z,39.93
2019-01-05T17:19:27.528Z,36.20
2019-01-05T17:22:21.925Z,37.33
2019-01-05T17:25:13.349Z,33.97
2019-01-05T17:28:05.211Z,33.53
2019-01-05T17:30:57.718Z,34.63
2019-01-05T17:33:48.819Z,37.53
2019-01-05T17:37:02.023Z,40.70
2019-01-05T17:39:54.782Z,45.63
2019-01-05T17:42:47.933Z,41.70
2019-01-05T17:45:50.355Z,41.27
2019-01-05T17:49:00.143Z,39.80
2019-01-05T17:52:05.544Z,37.80
2019-01-05T17:55:19.170Z,40.97
2019-01-05T17:58:11.605Z,38.13
2019-01-05T18:01:19.119Z,37.73
2019-01-05T18:04:27.789Z,42.70
2019-01-05T18:07:19.303Z,38.20
2019-01-05T18:10:27.235Z,40.50
2019-01-05T18:13:18.632Z,43.50
2019-01-05T18:16:10.687Z,43.40
2019-01-05T18:18:59.840Z,54.37
2019-01-05T18:22:13.965Z,50.17
2019-01-05T18:25:05.596Z,47.93
2019-01-05T18:28:13.083Z,48.77
2019-01-05T18:31:04.034Z,47.20
2019-01-05T18:34:07.065Z,48.60
2019-01-05T18:36:59.710Z,49.77
2019-01-05T18:39:52.046Z,52.13
2019-01-05T18:42:55.456Z,47.80
2019-01-05T18:46:07.156Z,45.77
2019-01-05T18:49:03.058Z,39.77
2019-01-05T18:52:24.830Z,39.93
2019-01-05T18:55:15.706Z,40.07
2019-01-05T18:58:08.692Z,42.97
2019-01-05T19:01:05.347Z,47.40
2019-01-05T19:03:57.776Z,44.50
2019-01-05T19:06:51.199Z,44.80
2019-01-05T19:09:47.721Z,40.97
2019-01-05T19:12:38.620Z,36.57
2019-01-05T19:15:40.619Z,32.83
2019-01-05T19:18:32.051Z,31.37
2019-01-05T19:21:25.701Z,30.70
2019-01-05T19:24:16.932Z,31.27
2019-01-05T19:27:28.977Z,30.77
2019-01-05T19:30:27.900Z,28.40
2019-01-05T19:33:19.540Z,29.70
2019-01-05T19:36:09.742Z,30.30
2019-01-05T19:39:09.344Z,32.93
2019-01-05T19:42:03.168Z,32.23
2019-01-05T19:45:09.048Z,27.93
2019-01-05T19:48:21.526Z,26.83
2019-01-05T19:51:21.448Z,25.90
2019-01-05T19:54:19.620Z,26.13
2019-01-05T19:57:31.116Z,26.13
2019-01-05T20:00:31.672Z,25.67
2019-01-05T20:03:24.031Z,25.43
2019-01-05T20:06:17.284Z,24.70
2019-01-05T20:09:11.438Z,24.87
2019-01-05T20:12:06.851Z,23.90
2019-01-05T20:14:58.290Z,21.00
2019-01-05T20:17:49.374Z,21.47
2019-01-05T20:20:47.291Z,21.80
2019-01-05T20:23:41.381Z,19.83
2019-01-05T20:26:46.457Z,22.20
2019-01-05T20:29:58.672Z,22.00
2019-01-05T20:32:50.994Z,25.17
2019-01-05T20:35:53.740Z,20.43
2019-01-05T20:38:49.669Z,23.80
2019-01-05T20:41:57.441Z,25.47
2019-01-05T20:44:51.504Z,28.80
2019-01-05T20:47:59.210Z,24.83
2019-01-05T20:50:52.494Z,27.93
2019-01-05T20:53:51.434Z,23.87
2019-01-05T20:57:00.518Z,24.00
2019-01-05T21:00:09.876Z,19.83
2019-01-05T21:02:52.888Z,19.40
2019-01-05T21:05:48.114Z,19.37
2019-01-05T21:08:50.380Z,20.53
2019-01-05T21:11:43.464Z,21.33
2019-01-05T21:14:34.864Z,20.43
2019-01-05T21:17:41.482Z,20.53
2019-01-05T21:20:49.020Z,19.57
2019-01-05T21:23:41.696Z,18.07
2019-01-05T21:26:33.522Z,18.37
2019-01-05T21:29:32.929Z,21.80
2019-01-05T21:32:22.498Z,17.23
2019-01-05T21:35:15.546Z,17.40
2019-01-05T21:38:07.940Z,18.20
2019-01-05T21:41:04.222Z,25.27
2019-01-05T21:43:56.266Z,18.40
2019-01-05T21:46:47.342Z,17.97
2019-01-05T21:49:39.166Z,18.87
2019-01-05T21:52:44.117Z,21.50
2019-01-05T21:55:42.998Z,18.43
2019-01-05T21:58:38.436Z,22.53
2019-01-05T22:01:26.892Z,20.40
2019-01-05T22:04:23.385Z,18.37
2019-01-05T22:07:27.966Z,18.07
2019-01-05T22:10:19.148Z,18.87
2019-01-05T22:13:10.138Z,19.10
2019-01-05T22:16:18.789Z,22.03
2019-01-05T22:19:16.980Z,19.83
2019-01-05T22:22:11.328Z,19.47
2019-01-05T22:25:03.422Z,19.10
2019-01-05T22:27:54.766Z,19.80
2019-01-05T22:30:46.080Z,18.37
2019-01-05T22:33:51.482Z,18.60
2019-01-05T22:36:48.379Z,18.23
2019-01-05T22:39:42.088Z,19.97
2019-01-05T22:42:44.113Z,21.67
2019-01-05T22:45:36.756Z,21.60
2019-01-05T22:48:28.863Z,25.13
2019-01-05T22:51:12.363Z,25.23
2019-01-05T22:54:04.192Z,26.00
2019-01-05T22:57:06.424Z,26.43
2019-01-05T23:00:02.714Z,25.67
2019-01-05T23:03:14.954Z,27.87
2019-01-05T23:06:09.863Z,28.93
2019-01-05T23:09:01.426Z,29.03
2019-01-05T23:12:02.852Z,27.73
2019-01-05T23:15:05.343Z,27.03
2019-01-05T23:17:58.852Z,28.27
2019-01-05T23:20:54.920Z,21.37
2019-01-05T23:23:46.922Z,21.20
2019-01-05T23:26:48.771Z,20.23
2019-01-05T23:29:54.344Z,20.37
2019-01-05T23:32:45.032Z,17.70
2019-01-05T23:35:57.244Z,18.13
2019-01-05T23:38:50.457Z,19.90
2019-01-05T23:41:48.196Z,20.93
2019-01-05T23:44:58.048Z,19.43
2019-01-05T23:47:51.141Z,18.30
2019-01-05T23:50:41.750Z,16.47
2019-01-05T23:53:33.692Z,14.73
2019-01-05T23:56:30.425Z,15.10
2019-01-05T23:59:21.646Z,14.87
